Time;durP1;ratioP1;P1;durP2;ratioP2;P2;SDS_P1;SDS_P2;PMS_P1;PMS_P2;Temp;Humidity;BMP_temperature;BMP_pressure;BME280_temperature;BME280_humidity;BME280_pressure;Samples;Min_cycle;Max_cycle;Signal;HPM_P1;HPM_P2
2023/09/07 00:00:19;;;;;;;4.50;3.83;;;;;;;16.16;95.00;101725.69;5127689;28;20042;-60
2023/09/07 00:02:46;;;;;;;3.90;3.50;;;;;;;16.18;95.29;101724.78;5127357;28;20031;-61
2023/09/07 00:05:13;;;;;;;5.30;3.92;;;;;;;16.21;95.12;101723.88;5127519;28;20024;-60
2023/09/07 00:07:38;;;;;;;4.75;3.78;;;;;;;16.24;95.04;101721.25;5127652;28;20031;-60
2023/09/07 00:10:04;;;;;;;5.97;4.53;;;;;;;16.27;95.19;101730.81;5127177;28;20024;-60
2023/09/07 00:12:30;;;;;;;7.65;4.60;;;;;;;16.24;95.07;101718.63;5127341;28;20030;-60
2023/09/07 00:14:55;;;;;;;6.28;4.18;;;;;;;16.28;94.90;101727.31;5127413;28;20076;-60
2023/09/07 00:17:21;;;;;;;11.35;4.70;;;;;;;16.27;94.89;101734.31;5127044;28;20023;-61
2023/09/07 00:19:50;;;;;;;5.95;4.38;;;;;;;16.25;95.18;101722.09;5127293;28;20087;-60
2023/09/07 00:22:16;;;;;;;3.22;2.85;;;;;;;16.27;95.17;101734.31;5127097;28;20027;-58
2023/09/07 00:24:42;;;;;;;9.38;4.38;;;;;;;16.27;95.41;101725.56;5126810;28;20048;-60
2023/09/07 00:27:08;;;;;;;6.30;4.18;;;;;;;16.28;95.49;101727.31;5127242;28;20015;-59
2023/09/07 00:29:35;;;;;;;5.60;3.95;;;;;;;16.29;95.26;101729.03;5127036;28;20110;-59
2023/09/07 00:32:00;;;;;;;4.82;4.03;;;;;;;16.24;95.32;101726.47;5127007;28;20023;-60
2023/09/07 00:34:26;;;;;;;4.95;3.22;;;;;;;16.28;95.10;101730.78;5126990;28;20077;-60
2023/09/07 00:36:51;;;;;;;7.75;3.97;;;;;;;16.27;95.18;101726.44;5126922;28;20407;-60
2023/09/07 00:39:16;;;;;;;5.93;4.50;;;;;;;16.29;95.29;101737.78;5126360;28;20031;-58
2023/09/07 00:41:42;;;;;;;5.68;4.45;;;;;;;16.28;94.92;101737.81;5126757;28;20015;-59
2023/09/07 00:44:07;;;;;;;5.70;4.22;;;;;;;16.28;94.97;101738.66;5108131;28;20034;-60
2023/09/07 00:46:33;;;;;;;4.90;4.38;;;;;;;16.28;94.65;101736.03;5126893;28;20024;-60
2023/09/07 00:48:58;;;;;;;3.40;3.10;;;;;;;16.25;94.95;101737.81;5126686;28;20048;-59
2023/09/07 00:51:24;;;;;;;5.05;4.00;;;;;;;16.22;95.18;101734.34;5108226;28;20023;-61
2023/09/07 00:53:50;;;;;;;7.43;5.30;;;;;;;16.25;95.25;101737.81;5126390;28;20020;-59
2023/09/07 00:56:16;;;;;;;6.57;4.20;;;;;;;16.26;95.15;101747.41;5126425;28;20470;-59
2023/09/07 00:58:42;;;;;;;6.43;3.65;;;;;;;16.22;95.07;101733.47;5126560;28;20027;-60
2023/09/07 01:01:08;;;;;;;8.27;4.10;;;;;;;16.25;95.10;101743.94;5126590;28;20097;-59
2023/09/07 01:03:34;;;;;;;6.72;3.88;;;;;;;16.22;95.12;101744.84;5126375;28;20054;-59
2023/09/07 01:06:07;;;;;;;4.90;3.75;;;;;;;16.25;95.18;101748.28;5126299;28;20528;-59
2023/09/07 01:08:42;;;;;;;5.68;4.47;;;;;;;16.24;94.95;101736.97;5126232;28;20027;-59
2023/09/07 01:11:22;;;;;;;7.43;5.13;;;;;;;16.27;95.15;101744.78;5125812;28;20019;-60
2023/09/07 01:13:48;;;;;;;7.82;4.45;;;;;;;16.28;94.67;101749.13;5126034;28;20083;-59
2023/09/07 01:16:14;;;;;;;9.00;5.35;;;;;;;16.27;94.74;101757.00;5126361;28;20084;-60
2023/09/07 01:18:40;;;;;;;7.20;4.50;;;;;;;16.27;94.80;101744.78;5126103;28;20023;-60
2023/09/07 01:21:09;;;;;;;8.90;5.03;;;;;;;16.28;94.52;101751.75;5125963;28;20045;-58
2023/09/07 01:23:41;;;;;;;6.70;4.47;;;;;;;16.26;94.89;101750.91;5125946;28;20027;-60
2023/09/07 01:26:08;;;;;;;6.07;4.63;;;;;;;16.25;95.04;101757.03;5125902;28;20028;-58
2023/09/07 01:28:35;;;;;;;6.55;4.47;;;;;;;16.20;95.32;101758.81;5125828;28;20027;-59
2023/09/07 01:31:01;;;;;;;7.40;4.57;;;;;;;16.22;94.89;101751.81;5107638;28;20379;-60
2023/09/07 01:33:26;;;;;;;7.07;4.88;;;;;;;16.24;94.99;101768.41;5126113;28;20024;-60
2023/09/07 01:35:52;;;;;;;8.27;5.57;;;;;;;16.20;95.28;101756.19;5125915;28;20042;-59
2023/09/07 01:38:17;;;;;;;5.20;3.45;;;;;;;16.21;95.23;101757.94;5125118;28;20020;-59
2023/09/07 01:40:43;;;;;;;4.63;3.50;;;;;;;16.22;95.46;101764.91;5125329;28;20363;-59
2023/09/07 01:43:08;;;;;;;5.82;4.43;;;;;;;16.25;95.29;101767.50;5125761;28;20019;-59
2023/09/07 01:45:34;;;;;;;7.13;4.38;;;;;;;16.27;94.94;101773.59;5125289;28;20107;-59
2023/09/07 01:47:59;;;;;;;8.40;4.07;;;;;;;16.26;94.70;101766.63;5125560;28;20057;-58
2023/09/07 01:50:26;;;;;;;15.57;5.63;;;;;;;16.22;94.98;101765.78;5125476;28;20089;-60
2023/09/07 01:52:52;;;;;;;5.57;4.28;;;;;;;16.25;94.99;101775.38;5124299;28;20031;-59
2023/09/07 01:55:17;;;;;;;6.03;3.90;;;;;;;16.25;95.02;101762.25;5125071;28;20028;-60
2023/09/07 01:57:43;;;;;;;5.38;4.03;;;;;;;16.27;94.79;101768.38;5125316;28;20324;-61
2023/09/07 02:00:10;;;;;;;6.45;4.43;;;;;;;16.27;94.94;101768.38;5125344;28;20026;-60
2023/09/07 02:02:35;;;;;;;8.07;5.13;;;;;;;16.25;94.69;101777.09;5125431;28;20020;-60
2023/09/07 02:05:01;;;;;;;8.65;4.53;;;;;;;16.21;94.71;101768.44;5125166;28;20050;-58
2023/09/07 02:07:26;;;;;;;8.50;4.85;;;;;;;16.23;94.65;101775.38;5125268;28;20083;-58
2023/09/07 02:09:52;;;;;;;7.15;5.43;;;;;;;16.23;94.48;101777.13;5124707;28;20038;-60
2023/09/07 02:12:17;;;;;;;5.90;4.05;;;;;;;16.23;94.45;101769.25;5125040;28;20103;-58
2023/09/07 02:14:43;;;;;;;7.35;4.65;;;;;;;16.17;94.69;101774.56;5125081;28;20455;-58
2023/09/07 02:17:08;;;;;;;6.50;4.95;;;;;;;16.18;94.68;101771.09;5125259;28;20027;-58
2023/09/07 02:19:33;;;;;;;16.63;4.07;;;;;;;16.14;94.94;101777.22;5124933;28;20019;-60
2023/09/07 02:21:59;;;;;;;6.55;4.90;;;;;;;16.12;94.75;101769.38;5124834;28;20108;-59
2023/09/07 02:24:24;;;;;;;7.55;4.78;;;;;;;16.04;95.13;101766.84;5124480;28;20019;-60
2023/09/07 02:26:50;;;;;;;15.55;4.82;;;;;;;15.98;94.81;101764.28;5124875;28;20016;-60
2023/09/07 02:29:15;;;;;;;4.90;4.13;;;;;;;15.97;95.33;101780.84;5124925;28;20049;-60
2023/09/07 02:31:41;;;;;;;5.13;4.13;;;;;;;15.92;95.34;101766.94;5124812;28;20189;-60
2023/09/07 02:34:06;;;;;;;6.38;4.90;;;;;;;15.91;95.54;101773.91;5106448;28;20435;-59
2023/09/07 02:36:34;;;;;;;6.95;5.45;;;;;;;15.85;95.80;101773.97;5106563;28;20232;-59
2023/09/07 02:38:59;;;;;;;4.72;3.88;;;;;;;15.84;96.05;101775.72;5124694;28;20020;-59
2023/09/07 02:41:24;;;;;;;12.68;4.38;;;;;;;15.81;95.84;101767.03;5124408;28;20477;-59
2023/09/07 02:43:51;;;;;;;7.82;3.70;;;;;;;15.79;96.30;101769.66;5124308;28;20019;-59
2023/09/07 02:46:16;;;;;;;9.80;5.70;;;;;;;15.79;95.96;101769.66;5124773;28;20036;-59
2023/09/07 02:48:42;;;;;;;7.50;4.57;;;;;;;15.79;96.19;101774.00;5124608;28;20057;-59
2023/09/07 02:51:07;;;;;;;7.28;5.05;;;;;;;15.73;96.04;101772.31;5124675;28;20149;-59
2023/09/07 02:53:32;;;;;;;5.38;4.13;;;;;;;15.73;96.04;101765.31;5124213;28;20478;-59
2023/09/07 02:55:58;;;;;;;13.13;4.50;;;;;;;15.69;96.19;101765.34;5124321;28;20027;-58
2023/09/07 02:58:23;;;;;;;4.65;3.42;;;;;;;15.66;96.56;101773.25;5124071;28;20426;-60
2023/09/07 03:00:49;;;;;;;6.50;4.40;;;;;;;15.60;96.87;101775.03;5124455;28;20467;-59
2023/09/07 03:03:15;;;;;;;10.55;4.50;;;;;;;15.61;97.08;101779.38;5125842;28;20077;-58
2023/09/07 03:05:42;;;;;;;5.95;2.40;;;;;;;15.59;97.24;101767.22;5128722;28;20049;-59
2023/09/07 03:08:07;;;;;;;10.85;6.22;;;;;;;15.63;97.10;101783.72;5128703;28;20060;-59
2023/09/07 03:10:34;;;;;;;5.60;3.83;;;;;;;15.60;96.91;101779.41;5128283;28;20030;-59
2023/09/07 03:13:00;;;;;;;5.43;4.88;;;;;;;15.57;97.05;101782.91;5110180;28;20034;-60
2023/09/07 03:15:25;;;;;;;8.18;5.53;;;;;;;15.54;97.35;101782.06;5128510;28;20019;-60
2023/09/07 03:17:51;;;;;;;11.82;5.70;;;;;;;15.57;97.05;101782.91;5128530;28;20019;-60
2023/09/07 03:20:17;;;;;;;5.15;3.78;;;;;;;15.53;97.48;101781.19;5128626;28;20236;-60
2023/09/07 03:22:43;;;;;;;10.45;5.57;;;;;;;15.56;97.15;101786.41;5128240;28;20034;-58
2023/09/07 03:25:12;;;;;;;5.85;5.15;;;;;;;15.48;97.56;101785.56;5127975;28;20079;-60
2023/09/07 03:27:38;;;;;;;4.53;3.33;;;;;;;15.63;96.84;101775.88;5128302;28;20031;-58
2023/09/07 03:30:05;;;;;;;7.60;4.53;;;;;;;15.51;97.30;101771.63;5110023;28;20049;-60
2023/09/07 03:32:32;;;;;;;8.63;4.45;;;;;;;15.56;96.82;101777.69;5128247;28;20016;-60
2023/09/07 03:35:03;;;;;;;8.13;5.57;;;;;;;15.49;97.29;101769.88;5128170;28;20386;-58
2023/09/07 03:37:29;;;;;;;5.93;4.38;;;;;;;15.53;96.90;101773.34;5127879;28;20015;-59
2023/09/07 03:39:56;;;;;;;6.82;3.45;;;;;;;15.48;97.39;101769.88;5127843;28;20038;-59
2023/09/07 03:42:21;;;;;;;13.82;3.85;;;;;;;15.40;97.78;101756.00;5128172;28;20027;-59
2023/09/07 03:44:46;;;;;;;4.47;3.65;;;;;;;15.46;97.81;101771.66;5127639;28;20055;-61
2023/09/07 03:47:15;;;;;;;4.22;3.25;;;;;;;15.51;97.69;101776.84;5127832;28;20387;-59
2023/09/07 03:49:40;;;;;;;7.25;4.47;;;;;;;15.50;97.54;101778.59;5127585;28;20086;-58
2023/09/07 03:52:05;;;;;;;1.98;1.85;;;;;;;15.55;97.06;101778.56;5127730;28;20023;-58
2023/09/07 03:54:31;;;;;;;5.18;3.42;;;;;;;15.46;97.53;101771.66;5127467;28;20019;-60
2023/09/07 03:56:57;;;;;;;5.15;3.88;;;;;;;15.49;97.53;101779.47;5127895;28;20049;-59
2023/09/07 03:59:22;;;;;;;5.75;3.53;;;;;;;15.48;97.77;101775.09;5127767;28;20098;-59
2023/09/07 04:01:48;;;;;;;5.57;3.60;;;;;;;15.48;97.92;101770.75;5127525;28;20366;-60
2023/09/07 04:04:13;;;;;;;6.10;4.13;;;;;;;15.47;97.36;101766.41;5127637;28;20047;-58
2023/09/07 04:06:38;;;;;;;3.55;2.63;;;;;;;15.48;97.64;101769.88;5127373;28;20468;-59
2023/09/07 04:09:04;;;;;;;3.90;3.05;;;;;;;15.48;97.78;101772.50;5127436;28;20024;-59
2023/09/07 04:11:30;;;;;;;4.75;3.42;;;;;;;15.50;97.36;101770.75;5127191;28;20023;-59
2023/09/07 04:13:55;;;;;;;4.18;3.58;;;;;;;15.45;97.47;101762.94;5127053;28;20348;-61
2023/09/07 04:16:20;;;;;;;5.85;3.95;;;;;;;15.47;97.73;101770.75;5126779;28;20024;-60
2023/09/07 04:18:46;;;;;;;3.70;3.00;;;;;;;15.45;97.68;101765.53;5127195;28;20023;-60
2023/09/07 04:21:11;;;;;;;3.67;2.42;;;;;;;15.42;97.40;101762.06;5127004;28;20022;-60
2023/09/07 04:23:40;;;;;;;4.03;3.60;;;;;;;15.41;97.23;101762.97;5127246;28;20026;-60
2023/09/07 04:26:10;;;;;;;5.20;3.47;;;;;;;15.35;97.15;101763.88;5126954;28;20032;-59
2023/09/07 04:28:36;;;;;;;4.00;3.25;;;;;;;15.32;97.36;101750.81;5127299;28;20019;-59
2023/09/07 04:31:02;;;;;;;5.05;3.65;;;;;;;15.29;97.40;101756.94;5127184;28;20047;-59
2023/09/07 04:33:30;;;;;;;7.60;3.05;;;;;;;15.29;97.38;101759.53;5127164;28;20012;-60
2023/09/07 04:35:56;;;;;;;8.10;4.00;;;;;;;15.32;97.48;101766.53;5109209;28;20046;-60
2023/09/07 04:38:21;;;;;;;4.05;3.50;;;;;;;15.35;97.50;101764.72;5127061;28;20024;-60
2023/09/07 04:40:46;;;;;;;5.53;3.33;;;;;;;15.43;97.63;101769.06;5126678;28;20132;-60
2023/09/07 04:43:12;;;;;;;9.73;4.10;;;;;;;15.47;97.78;101768.16;5126790;28;20020;-60
2023/09/07 04:45:45;;;;;;;6.63;3.33;;;;;;;15.61;98.13;101768.03;5126733;28;20032;-59
2023/09/07 04:48:11;;;;;;;4.32;3.25;;;;;;;15.73;98.08;101761.84;5126757;28;20543;-61
2023/09/07 04:50:37;;;;;;;4.32;3.40;;;;;;;15.89;98.52;101772.19;5126702;28;20027;-60
2023/09/07 04:53:02;;;;;;;7.22;3.58;;;;;;;16.02;98.50;101767.75;5126947;28;20092;-61
2023/09/07 04:55:28;;;;;;;4.40;3.53;;;;;;;16.12;98.78;101766.75;5126624;28;20020;-60
2023/09/07 04:57:53;;;;;;;3.70;3.22;;;;;;;16.20;97.97;101767.56;5126989;28;20104;-59
2023/09/07 05:00:18;;;;;;;7.15;2.65;;;;;;;16.36;98.15;101777.88;5126612;28;20024;-60
2023/09/07 05:02:44;;;;;;;6.50;4.10;;;;;;;16.46;97.83;101776.03;5126354;28;20026;-60
2023/09/07 05:05:09;;;;;;;13.77;2.75;;;;;;;16.44;96.10;101778.66;5126589;28;20028;-60
2023/09/07 05:07:35;;;;;;;5.20;2.78;;;;;;;16.32;95.28;101777.06;5126426;28;20548;-59
2023/09/07 05:10:00;;;;;;;9.55;3.35;;;;;;;16.17;94.87;101767.59;5126422;28;20020;-60
2023/09/07 05:12:25;;;;;;;4.90;2.95;;;;;;;16.14;94.66;101785.06;5126533;28;20083;-60
2023/09/07 05:14:51;;;;;;;5.47;3.28;;;;;;;16.05;94.42;101786.06;5126840;28;20409;-59
2023/09/07 05:17:16;;;;;;;4.07;3.10;;;;;;;15.98;94.39;101790.47;5126571;28;20079;-60
2023/09/07 05:19:41;;;;;;;3.25;2.50;;;;;;;15.95;94.49;101785.22;5126459;28;20020;-60
2023/09/07 05:22:06;;;;;;;3.42;2.70;;;;;;;15.94;94.35;101786.97;5108001;28;20053;-59
2023/09/07 05:24:32;;;;;;;3.90;2.85;;;;;;;15.91;94.28;101792.22;5107181;28;20081;-60
2023/09/07 05:26:57;;;;;;;4.38;3.25;;;;;;;15.93;94.30;101794.84;5126439;28;20110;-60
2023/09/07 05:29:23;;;;;;;5.35;2.95;;;;;;;15.95;94.20;101787.84;5126336;28;20026;-58
2023/09/07 05:31:51;;;;;;;3.42;2.63;;;;;;;15.93;93.85;101784.34;5126342;28;20011;-61
2023/09/07 05:34:16;;;;;;;6.95;3.20;;;;;;;15.94;93.50;101788.75;5126201;28;20016;-60
2023/09/07 05:36:42;;;;;;;3.97;2.92;;;;;;;15.89;92.69;101786.16;5126126;28;20038;-59
2023/09/07 05:39:07;;;;;;;4.45;2.85;;;;;;;15.81;92.31;101786.22;5125693;28;20481;-59
2023/09/07 05:41:32;;;;;;;5.70;2.85;;;;;;;15.76;91.89;101780.16;5125611;28;20031;-60
2023/09/07 05:43:57;;;;;;;4.93;2.25;;;;;;;15.63;92.04;101779.38;5125459;28;20367;-60
2023/09/07 05:46:23;;;;;;;2.55;2.25;;;;;;;15.39;93.15;101765.59;5126002;28;20023;-59
2023/09/07 05:48:48;;;;;;;4.70;2.63;;;;;;;15.58;93.34;101792.50;5125774;28;20019;-60
2023/09/07 05:51:13;;;;;;;2.40;1.95;;;;;;;15.64;92.86;101798.56;5107661;28;20015;-60
2023/09/07 05:53:39;;;;;;;4.80;2.35;;;;;;;15.62;92.13;101801.22;5125620;28;20020;-60
2023/09/07 05:56:04;;;;;;;3.50;2.47;;;;;;;15.52;92.79;101789.94;5125313;28;20049;-60
2023/09/07 05:58:30;;;;;;;3.75;2.95;;;;;;;15.55;92.46;101794.25;5125451;28;20023;-60
2023/09/07 06:00:55;;;;;;;3.67;2.38;;;;;;;15.60;92.48;101803.84;5125383;28;20064;-60
2023/09/07 06:03:21;;;;;;;3.22;2.15;;;;;;;15.66;92.77;101807.25;5125417;28;20032;-60
2023/09/07 06:05:46;;;;;;;4.97;2.63;;;;;;;15.68;92.55;101805.53;5125221;28;20080;-59
2023/09/07 06:08:11;;;;;;;5.22;3.05;;;;;;;15.69;92.67;101807.25;5125490;28;20379;-60
2023/09/07 06:10:37;;;;;;;5.03;3.22;;;;;;;15.70;92.89;101812.47;5125210;28;20129;-61
2023/09/07 06:13:02;;;;;;;3.10;2.72;;;;;;;15.79;92.75;101814.16;5125497;28;20020;-59
2023/09/07 06:15:29;;;;;;;3.03;2.45;;;;;;;15.83;92.65;101809.78;5125627;28;20030;-61
2023/09/07 06:17:54;;;;;;;3.03;2.17;;;;;;;15.74;92.85;101800.22;5125325;28;20048;-61
2023/09/07 06:20:20;;;;;;;4.40;2.80;;;;;;;15.91;92.51;101814.97;5125293;28;20065;-60
2023/09/07 06:22:45;;;;;;;4.57;2.70;;;;;;;15.91;91.99;101804.47;5124886;28;20031;-59
2023/09/07 06:25:11;;;;;;;3.33;1.90;;;;;;;15.92;91.20;101814.94;5125266;28;20047;-59
2023/09/07 06:27:36;;;;;;;8.55;2.22;;;;;;;15.88;91.72;101815.81;5125231;28;20115;-60
2023/09/07 06:30:02;;;;;;;4.75;3.05;;;;;;;15.92;91.36;101804.47;5125213;28;20036;-60
2023/09/07 06:32:28;;;;;;;3.10;1.92;;;;;;;15.91;91.03;101807.09;5125532;28;20108;-60
2023/09/07 06:34:53;;;;;;;7.68;3.38;;;;;;;15.90;90.71;101818.44;5125155;28;20058;-59
2023/09/07 06:37:19;;;;;;;3.38;2.75;;;;;;;15.93;90.47;101821.03;5124629;28;20072;-60
2023/09/07 06:39:44;;;;;;;7.40;3.03;;;;;;;15.85;91.09;101808.88;5124804;28;20050;-60
2023/09/07 06:42:12;;;;;;;4.15;2.65;;;;;;;15.88;90.83;101817.59;5124953;28;20022;-59
2023/09/07 06:44:38;;;;;;;3.78;2.65;;;;;;;15.88;91.29;101812.38;5124672;28;20047;-59
2023/09/07 06:47:03;;;;;;;2.67;2.45;;;;;;;15.95;90.98;101819.28;5124990;28;20027;-60
2023/09/07 06:49:29;;;;;;;4.82;2.88;;;;;;;15.98;91.36;101814.03;5125191;28;20041;-61
2023/09/07 06:51:55;;;;;;;6.95;2.55;;;;;;;16.02;91.30;101818.38;5125009;28;20041;-59
2023/09/07 06:54:21;;;;;;;2.75;2.25;;;;;;;16.03;91.38;101812.25;5124708;28;20141;-61
2023/09/07 06:56:46;;;;;;;2.38;2.15;;;;;;;16.19;90.95;101822.59;5124699;28;20027;-60
2023/09/07 06:59:12;;;;;;;2.33;1.77;;;;;;;16.21;91.27;101826.91;5124962;28;20034;-59
2023/09/07 07:01:37;;;;;;;7.05;2.88;;;;;;;16.23;90.80;101825.16;5124806;28;20023;-60
2023/09/07 07:04:03;;;;;;;4.55;2.45;;;;;;;16.26;90.59;101813.81;5124741;28;20043;-60
2023/09/07 07:06:28;;;;;;;2.95;2.20;;;;;;;16.30;90.85;101827.72;5106593;28;20024;-60
2023/09/07 07:08:53;;;;;;;4.32;1.88;;;;;;;16.34;90.36;101832.91;5124926;28;20070;-60
2023/09/07 07:11:19;;;;;;;3.08;2.17;;;;;;;16.29;90.51;101832.13;5124712;28;20038;-59
2023/09/07 07:13:45;;;;;;;3.72;2.42;;;;;;;16.34;90.36;101832.91;5124797;28;20024;-59
2023/09/07 07:16:10;;;;;;;2.63;1.85;;;;;;;16.40;89.05;101839.00;5124732;28;20016;-59
2023/09/07 07:18:36;;;;;;;2.75;2.13;;;;;;;16.30;87.71;101836.47;5124737;28;20019;-59
2023/09/07 07:21:01;;;;;;;2.25;1.80;;;;;;;16.15;88.81;101834.00;5124797;28;20024;-59
2023/09/07 07:23:26;;;;;;;3.75;2.58;;;;;;;16.07;88.45;101834.91;5124367;28;20110;-60
2023/09/07 07:25:52;;;;;;;3.13;2.45;;;;;;;16.00;88.80;101828.00;5124487;28;20049;-60
2023/09/07 07:28:17;;;;;;;2.97;2.45;;;;;;;15.97;88.82;101828.00;5124878;28;20035;-60
2023/09/07 07:30:42;;;;;;;1.20;0.93;;;;;;;16.02;88.86;101826.25;5124491;28;20494;-60
2023/09/07 07:33:09;;;;;;;4.07;2.85;;;;;;;15.97;88.25;101834.13;5124578;28;20095;-60
2023/09/07 07:35:35;;;;;;;5.88;2.47;;;;;;;15.96;88.88;101841.94;5124688;28;20019;-60
2023/09/07 07:38:03;;;;;;;3.97;2.40;;;;;;;15.98;88.70;101841.13;5124619;28;20019;-61
2023/09/07 07:40:29;;;;;;;3.65;1.95;;;;;;;15.98;88.42;101841.13;5124461;28;20023;-59
2023/09/07 07:42:54;;;;;;;2.80;2.15;;;;;;;15.97;87.99;101835.84;5124505;28;20045;-60
2023/09/07 07:45:20;;;;;;;4.60;2.63;;;;;;;15.96;88.33;101834.09;5124389;28;20044;-60
2023/09/07 07:47:46;;;;;;;2.25;2.00;;;;;;;16.00;88.11;101837.59;5124429;28;20467;-61
2023/09/07 07:50:11;;;;;;;2.35;2.15;;;;;;;16.00;88.22;101841.09;5125707;28;20080;-61
2023/09/07 07:52:37;;;;;;;3.72;2.38;;;;;;;16.07;88.01;101837.53;5128165;28;20028;-60
2023/09/07 07:55:02;;;;;;;2.90;1.77;;;;;;;16.08;87.37;101834.06;5127812;28;20103;-60
2023/09/07 07:57:28;;;;;;;3.25;2.38;;;;;;;16.04;87.35;101829.69;5109944;28;20473;-60
2023/09/07 07:59:56;;;;;;;4.88;1.83;;;;;;;16.08;87.40;101841.03;5109827;28;20095;-60
2023/09/07 08:02:21;;;;;;;2.80;2.03;;;;;;;16.07;87.33;101840.16;5127847;28;20078;-59
2023/09/07 08:04:47;;;;;;;4.25;2.40;;;;;;;16.13;86.86;101844.50;5128107;28;20023;-59
2023/09/07 08:07:12;;;;;;;1.23;1.13;;;;;;;16.17;86.75;101842.69;5127989;28;20027;-59
2023/09/07 08:09:38;;;;;;;6.18;2.80;;;;;;;16.14;86.35;101846.22;5127873;28;20044;-61
2023/09/07 08:12:05;;;;;;;4.70;2.85;;;;;;;16.13;86.43;101847.09;5128233;28;20023;-60
2023/09/07 08:14:30;;;;;;;2.42;2.22;;;;;;;16.12;87.20;101840.09;5127881;28;20015;-61
2023/09/07 08:16:57;;;;;;;2.95;1.77;;;;;;;16.17;87.12;101840.94;5127885;28;20029;-60
2023/09/07 08:19:22;;;;;;;5.13;2.72;;;;;;;16.24;86.48;101841.78;5127661;28;20043;-60
2023/09/07 08:21:48;;;;;;;3.30;1.67;;;;;;;16.32;85.57;101845.19;5127526;28;20016;-60
2023/09/07 08:24:13;;;;;;;4.10;2.65;;;;;;;16.24;85.25;101841.78;5127461;28;20024;-58
2023/09/07 08:26:39;;;;;;;5.45;2.47;;;;;;;16.25;86.30;101843.50;5127275;28;20041;-60
2023/09/07 08:29:05;;;;;;;3.72;2.17;;;;;;;16.30;86.49;101840.81;5127528;28;20026;-59
2023/09/07 08:31:40;;;;;;;1.98;1.75;;;;;;;16.33;85.72;101852.16;5127499;28;20828;-59
2023/09/07 08:34:09;;;;;;;3.20;2.42;;;;;;;16.34;85.38;101856.50;5127374;28;20023;-59
2023/09/07 08:36:34;;;;;;;3.95;2.88;;;;;;;16.29;85.46;101852.19;5127559;28;20069;-60
2023/09/07 08:39:05;;;;;;;3.50;2.47;;;;;;;16.34;85.28;101853.88;5127337;28;20421;-60
2023/09/07 08:41:32;;;;;;;3.25;2.55;;;;;;;16.32;85.71;101845.19;5126974;28;20027;-61
2023/09/07 08:43:58;;;;;;;3.65;2.17;;;;;;;16.35;85.87;101847.78;5126928;28;20020;-59
2023/09/07 08:46:23;;;;;;;3.67;2.17;;;;;;;16.45;86.01;101866.03;5127314;28;20031;-59
2023/09/07 08:48:50;;;;;;;2.50;2.20;;;;;;;16.48;84.92;101855.53;5127135;28;20035;-60
2023/09/07 08:51:17;;;;;;;4.22;2.08;;;;;;;16.49;84.20;101854.63;5127242;28;20019;-59
2023/09/07 08:53:45;;;;;;;3.42;2.38;;;;;;;16.39;84.41;101855.63;5129330;22;20059;-73
2023/09/07 08:56:12;;;;;;;3.08;1.95;;;;;;;16.40;85.25;101855.59;5087957;28;20052;-72
2023/09/07 08:58:37;;;;;;;2.63;2.13;;;;;;;16.50;85.15;101853.75;5088279;28;20027;-72
2023/09/07 09:01:02;;;;;;;4.45;2.15;;;;;;;16.57;84.60;101844.06;5104725;28;20019;-74
2023/09/07 09:03:29;;;;;;;4.15;2.00;;;;;;;16.60;83.40;101849.25;5106178;28;20016;-72
2023/09/07 09:05:56;;;;;;;3.67;1.98;;;;;;;16.51;83.90;101852.88;5105887;28;20019;-72
2023/09/07 09:08:24;;;;;;;2.78;2.00;;;;;;;16.47;83.55;101854.63;5106331;28;20097;-72
2023/09/07 09:10:58;;;;;;;2.80;2.08;;;;;;;16.45;83.52;101858.16;5105835;28;20040;-73
2023/09/07 09:13:33;;;;;;;3.13;2.53;;;;;;;16.54;84.45;101855.44;5105671;28;20027;-72
2023/09/07 09:16:01;;;;;;;1.95;1.77;;;;;;;16.63;82.80;101846.59;5106113;28;20026;-72
2023/09/07 09:18:27;;;;;;;2.92;2.20;;;;;;;16.62;82.52;101854.50;5087640;28;20058;-72
2023/09/07 09:20:53;;;;;;;3.10;2.15;;;;;;;16.57;82.92;101858.03;5087600;28;20088;-72
2023/09/07 09:23:18;;;;;;;5.15;2.72;;;;;;;16.58;83.05;101853.69;5087880;28;20169;-72
2023/09/07 09:25:43;;;;;;;3.65;2.20;;;;;;;16.62;83.14;101851.88;5104273;28;20012;-72
2023/09/07 09:28:10;;;;;;;3.00;2.35;;;;;;;16.76;82.67;101851.75;5105904;28;20043;-72
2023/09/07 09:30:36;;;;;;;3.78;2.47;;;;;;;16.82;82.56;101860.38;5087351;28;20047;-72
2023/09/07 09:33:02;;;;;;;6.65;2.85;;;;;;;16.93;82.56;101851.53;5105716;28;20049;-71
2023/09/07 09:35:29;;;;;;;2.38;2.13;;;;;;;17.03;82.46;101852.31;5105844;28;20471;-72
2023/09/07 09:37:55;;;;;;;2.80;2.42;;;;;;;17.13;81.50;101856.56;5087385;28;20039;-72
2023/09/07 09:40:21;;;;;;;7.50;2.50;;;;;;;17.09;81.64;101849.63;5105239;28;20087;-73
2023/09/07 09:42:46;;;;;;;10.38;2.88;;;;;;;17.19;82.50;101852.97;5105604;28;20028;-72
2023/09/07 09:45:12;;;;;;;1.73;1.63;;;;;;;17.41;81.61;101850.94;5086981;28;20028;-73
2023/09/07 09:47:40;;;;;;;2.15;1.83;;;;;;;17.45;81.36;101846.50;5105445;28;20102;-72
2023/09/07 09:50:07;;;;;;;2.78;2.28;;;;;;;17.54;80.68;101840.28;5105308;28;20392;-73
2023/09/07 09:52:37;;;;;;;3.22;2.42;;;;;;;17.44;80.08;101837.75;5087115;28;20027;-72
2023/09/07 09:55:07;;;;;;;5.30;3.25;;;;;;;17.52;80.49;101832.44;5105039;28;20038;-72
2023/09/07 09:57:34;;;;;;;4.63;2.20;;;;;;;17.48;79.03;101833.34;5105294;28;20035;-72
2023/09/07 10:00:06;;;;;;;8.23;1.67;;;;;;;17.37;78.87;101833.50;5105427;28;20359;-72
2023/09/07 10:02:34;;;;;;;2.30;1.90;;;;;;;17.40;79.82;101830.84;5105154;28;20334;-72
2023/09/07 10:05:06;;;;;;;2.20;1.50;;;;;;;17.56;78.61;101812.22;5105038;28;20024;-73
2023/09/07 10:07:47;;;;;;;3.05;2.15;;;;;;;17.53;79.02;101821.03;5105319;28;20023;-72
2023/09/07 10:10:17;;;;;;;2.28;1.60;;;;;;;17.62;79.82;101820.00;5103541;28;20048;-73
2023/09/07 10:12:43;;;;;;;2.95;2.15;;;;;;;17.88;80.13;101816.09;5104471;28;20069;-72
2023/09/07 10:15:25;;;;;;;1.15;0.95;;;;;;;18.31;78.89;101811.88;5086798;28;20031;-72
2023/09/07 10:17:52;;;;;;;1.30;1.20;;;;;;;18.30;76.47;101812.78;5104839;28;20050;-72
2023/09/07 10:20:18;;;;;;;3.05;2.08;;;;;;;18.15;75.59;101811.28;5104926;28;20028;-72
2023/09/07 10:22:43;;;;;;;4.88;2.28;;;;;;;18.09;76.64;101808.75;5086757;28;20030;-72
2023/09/07 10:25:20;;;;;;;2.38;1.70;;;;;;;18.27;78.17;101819.84;5104400;28;20016;-72
2023/09/07 10:27:47;;;;;;;3.58;2.47;;;;;;;18.47;76.48;101818.63;5104947;28;20519;-71
2023/09/07 10:30:13;;;;;;;3.05;1.98;;;;;;;18.58;76.88;101812.25;5104665;28;20024;-71
2023/09/07 10:32:40;;;;;;;2.80;1.88;;;;;;;18.67;75.44;101815.59;5104658;28;20020;-71
2023/09/07 10:35:16;;;;;;;1.77;1.52;;;;;;;18.75;75.17;101816.31;5104780;28;20028;-72
2023/09/07 10:37:48;;;;;;;4.43;2.08;;;;;;;18.83;73.88;101824.91;5086551;28;20024;-72
2023/09/07 10:40:23;;;;;;;;;;;;;;;19.05;73.94;101821.84;5104728;28;20479;-72
2023/09/07 10:42:49;;;;;;;1.95;1.60;;;;;;;19.16;72.32;101811.09;5104552;28;19915;-72
2023/09/07 10:45:16;;;;;;;4.40;2.30;;;;;;;19.06;71.77;101815.66;5104325;28;20016;-72
2023/09/07 10:47:43;;;;;;;3.03;1.55;;;;;;;19.10;70.72;101826.16;5104529;28;20120;-72
2023/09/07 10:50:13;;;;;;;2.35;1.95;;;;;;;18.95;70.63;101826.41;5104610;28;20039;-72
2023/09/07 10:52:41;;;;;;;5.78;2.15;;;;;;;18.77;70.52;101824.19;5086246;28;20020;-71
2023/09/07 10:55:11;;;;;;;2.08;1.88;;;;;;;18.71;71.23;101822.53;5085879;28;20071;-71
2023/09/07 10:57:47;;;;;;;1.92;1.42;;;;;;;18.82;71.45;101817.03;5104635;28;20051;-72
2023/09/07 11:00:14;;;;;;;3.08;0.93;;;;;;;18.94;70.22;101810.66;5104357;28;20664;-72
2023/09/07 11:02:40;;;;;;;3.92;2.00;;;;;;;18.89;69.89;101809.88;5104456;28;20107;-72
2023/09/07 11:05:06;;;;;;;2.00;1.15;;;;;;;19.10;69.96;101797.19;5104195;28;20017;-72
2023/09/07 11:07:32;;;;;;;2.47;1.60;;;;;;;19.14;70.30;101805.00;5104199;28;20039;-71
2023/09/07 11:09:58;;;;;;;2.92;1.60;;;;;;;19.46;69.09;101789.34;5085831;28;20091;-72
2023/09/07 11:12:23;;;;;;;3.35;2.10;;;;;;;19.97;67.57;101794.28;5104096;28;20031;-72
2023/09/07 11:14:50;;;;;;;1.13;1.02;;;;;;;20.32;65.34;101789.84;5085662;28;20027;-72
2023/09/07 11:17:15;;;;;;;4.38;1.63;;;;;;;20.13;65.91;101794.75;5085412;28;20024;-71
2023/09/07 11:19:41;;;;;;;2.88;1.80;;;;;;;20.39;67.20;101785.28;5103757;28;20027;-72